Terminal Aerodrome Forecast
Issued by NWS

Home | Current Version | Previous Version | Graphics & Text | Print | Product List | Glossary On
Versions: 1 2 3 4 5 6 7 8 9 10 11 12 13 14 15 16 17 18 19
000
FTUS43 KMPX 181700
TAFRNH
TAF
KRNH 181734Z 1818/1918 23006KT 5SM BR VCSH OVC020
      TEMPO 1820/1824 2SM TSRA BKN014CB
     FM190300 25003KT P6SM BKN040
     FM190600 28003KT 4SM BR BKN004 OVC007
      TEMPO 1907/1911 2SM BR OVC004
     FM191500 33006KT 4SM BR VCSH OVC007=

USA.gov is the U.S. government's official web portal to all federal, state and local government web resources and services.